Terminal Aerodrome Forecast
Issued by NWS

Home | Current Version | Previous Version | Text Only | Print | Product List | Glossary Off
Versions: 1 2 3 4 5 6 7 8 9 10 11 12 13 14

000
FTUS43 KICT 262325
TAFRSL
TAF
KRSL 262325Z 2700/2724 32008KT P6SM SKC
     FM270600 27007KT P6SM SKC
     FM271700 20012KT P6SM FEW250=

USA.gov is the U.S. government's official web portal to all federal, state and local government web resources and services.